sensor_id;sensor_type;location;lat;lon;timestamp;pressure;altitude;pressure_sealevel;temperature;humidity
23953;BME280;12163;49.316;6.092;2023-02-19T00:01:46;100088.44;;;10.15;83.48
23953;BME280;12163;49.316;6.092;2023-02-19T00:04:21;100087.13;;;10.12;83.41
23953;BME280;12163;49.316;6.092;2023-02-19T00:06:49;100067.41;;;10.12;83.50
23953;BME280;12163;49.316;6.092;2023-02-19T00:09:17;100070.13;;;10.12;83.94
23953;BME280;12163;49.316;6.092;2023-02-19T00:11:44;100083.59;;;10.12;83.71
23953;BME280;12163;49.316;6.092;2023-02-19T00:14:17;100084.13;;;10.09;83.96
23953;BME280;12163;49.316;6.092;2023-02-19T00:16:44;100090.63;;;10.08;83.96
23953;BME280;12163;49.316;6.092;2023-02-19T00:19:18;100078.22;;;10.07;83.92
23953;BME280;12163;49.316;6.092;2023-02-19T00:21:46;100095.47;;;10.06;84.24
23953;BME280;12163;49.316;6.092;2023-02-19T00:24:13;100069.03;;;10.03;84.14
23953;BME280;12163;49.316;6.092;2023-02-19T00:26:41;100087.38;;;10.01;84.57
23953;BME280;12163;49.316;6.092;2023-02-19T00:29:11;100080.84;;;9.97;84.28
23953;BME280;12163;49.316;6.092;2023-02-19T00:31:38;100103.25;;;9.98;84.66
23953;BME280;12163;49.316;6.092;2023-02-19T00:34:06;100107.28;;;10.00;84.97
23953;BME280;12163;49.316;6.092;2023-02-19T00:36:35;100113.50;;;10.00;84.90
23953;BME280;12163;49.316;6.092;2023-02-19T00:39:03;100107.28;;;10.00;84.78
23953;BME280;12163;49.316;6.092;2023-02-19T00:41:31;100084.91;;;9.99;84.99
23953;BME280;12163;49.316;6.092;2023-02-19T00:44:03;100046.09;;;9.96;84.60
23953;BME280;12163;49.316;6.092;2023-02-19T00:46:35;100059.28;;;9.97;85.29
23953;BME280;12163;49.316;6.092;2023-02-19T00:49:04;100063.88;;;9.97;85.35
23953;BME280;12163;49.316;6.092;2023-02-19T00:51:33;100074.38;;;9.93;85.48
23953;BME280;12163;49.316;6.092;2023-02-19T00:54:00;100076.53;;;9.91;85.64
23953;BME280;12163;49.316;6.092;2023-02-19T00:56:27;100063.59;;;9.88;85.69
23953;BME280;12163;49.316;6.092;2023-02-19T00:58:55;100080.84;;;9.87;85.71
23953;BME280;12163;49.316;6.092;2023-02-19T01:01:22;100079.22;;;9.86;86.27
23953;BME280;12163;49.316;6.092;2023-02-19T01:03:48;100074.63;;;9.87;85.92
23953;BME280;12163;49.316;6.092;2023-02-19T01:06:16;100088.41;;;9.90;86.01
23953;BME280;12163;49.316;6.092;2023-02-19T01:08:44;100080.59;;;9.89;85.79
23953;BME280;12163;49.316;6.092;2023-02-19T01:11:11;100085.16;;;9.88;85.72
23953;BME280;12163;49.316;6.092;2023-02-19T01:13:38;100097.56;;;9.89;85.93
23953;BME280;12163;49.316;6.092;2023-02-19T01:16:09;100088.41;;;9.90;85.77
23953;BME280;12163;49.316;6.092;2023-02-19T01:18:36;100086.53;;;9.91;85.73
23953;BME280;12163;49.316;6.092;2023-02-19T01:21:05;100075.75;;;9.91;85.85
23953;BME280;12163;49.316;6.092;2023-02-19T01:23:33;100077.63;;;9.90;85.47
23953;BME280;12163;49.316;6.092;2023-02-19T01:26:03;100078.69;;;9.89;85.74
23953;BME280;12163;49.316;6.092;2023-02-19T01:28:30;100065.75;;;9.91;85.89
23953;BME280;12163;49.316;6.092;2023-02-19T01:31:03;100059.56;;;9.91;85.39
23953;BME280;12163;49.316;6.092;2023-02-19T01:33:31;100051.19;;;9.92;85.39
23953;BME280;12163;49.316;6.092;2023-02-19T01:35:58;100051.19;;;9.92;85.77
23953;BME280;12163;49.316;6.092;2023-02-19T01:38:25;100047.16;;;9.90;85.87
23953;BME280;12163;49.316;6.092;2023-02-19T01:40:56;100051.19;;;9.87;86.09
23953;BME280;12163;49.316;6.092;2023-02-19T01:43:23;100042.56;;;9.85;86.23
23953;BME280;12163;49.316;6.092;2023-02-19T01:45:50;100055.75;;;9.87;86.61
23953;BME280;12163;49.316;6.092;2023-02-19T01:48:23;100050.66;;;9.85;86.39
23953;BME280;12163;49.316;6.092;2023-02-19T01:50:58;100041.50;;;9.86;86.73
23953;BME280;12163;49.316;6.092;2023-02-19T01:53:33;100046.09;;;9.91;86.09
23953;BME280;12163;49.316;6.092;2023-02-19T01:56:03;100042.31;;;9.92;86.23
23953;BME280;12163;49.316;6.092;2023-02-19T01:58:33;100033.41;;;9.91;86.13
23953;BME280;12163;49.316;6.092;2023-02-19T02:01:02;100027.22;;;9.91;86.33
23953;BME280;12163;49.316;6.092;2023-02-19T02:03:30;100024.53;;;9.91;86.52
23953;BME280;12163;49.316;6.092;2023-02-19T02:06:05;100007.81;;;9.89;86.93
23953;BME280;12163;49.316;6.092;2023-02-19T02:08:33;100012.63;;;9.87;86.58
23953;BME280;12163;49.316;6.092;2023-02-19T02:11:19;100024.25;;;9.82;87.13
23953;BME280;12163;49.316;6.092;2023-02-19T02:13:46;100017.25;;;9.81;87.79
23953;BME280;12163;49.316;6.092;2023-02-19T02:22:28;100005.09;;;9.84;87.18
23953;BME280;12163;49.316;6.092;2023-02-19T02:35:44;100022.09;;;9.89;87.57
23953;BME280;12163;49.316;6.092;2023-02-19T02:38:14;100010.22;;;9.85;87.97
23953;BME280;12163;49.316;6.092;2023-02-19T02:40:43;100016.41;;;9.81;88.41
23953;BME280;12163;49.316;6.092;2023-02-19T02:43:11;100025.28;;;9.76;88.81
23953;BME280;12163;49.316;6.092;2023-02-19T02:45:38;100009.66;;;9.73;88.91
23953;BME280;12163;49.316;6.092;2023-02-19T02:53:48;100010.78;;;9.77;88.66
23953;BME280;12163;49.316;6.092;2023-02-19T02:56:35;100010.47;;;9.84;87.98
23953;BME280;12163;49.316;6.092;2023-02-19T02:59:05;99999.44;;;9.85;88.11
23953;BME280;12163;49.316;6.092;2023-02-19T03:01:47;100017.22;;;9.86;87.81
23953;BME280;12163;49.316;6.092;2023-02-19T03:08:06;100016.41;;;9.86;87.66
23953;BME280;12163;49.316;6.092;2023-02-19T03:10:43;100001.06;;;9.86;87.83
23953;BME280;12163;49.316;6.092;2023-02-19T03:13:40;100001.31;;;9.85;87.66
23953;BME280;12163;49.316;6.092;2023-02-19T03:16:27;100003.22;;;9.89;87.57
23953;BME280;12163;49.316;6.092;2023-02-19T03:19:16;99991.09;;;9.92;87.51
23953;BME280;12163;49.316;6.092;2023-02-19T03:21:50;99996.22;;;9.88;87.96
23953;BME280;12163;49.316;6.092;2023-02-19T03:24:21;99994.59;;;9.87;88.10
23953;BME280;12163;49.316;6.092;2023-02-19T03:27:09;99992.16;;;9.86;88.38
23953;BME280;12163;49.316;6.092;2023-02-19T03:29:39;100004.00;;;9.85;88.44
23953;BME280;12163;49.316;6.092;2023-02-19T03:32:15;100007.25;;;9.82;88.51
23953;BME280;12163;49.316;6.092;2023-02-19T03:34:47;100011.31;;;9.84;88.66
23953;BME280;12163;49.316;6.092;2023-02-19T03:37:33;100019.38;;;9.89;88.57
23953;BME280;12163;49.316;6.092;2023-02-19T03:40:03;100014.00;;;9.89;87.93
23953;BME280;12163;49.316;6.092;2023-02-19T03:42:38;100018.84;;;9.92;87.73
23953;BME280;12163;49.316;6.092;2023-02-19T03:45:22;100016.69;;;9.94;87.61
23953;BME280;12163;49.316;6.092;2023-02-19T03:47:57;100021.00;;;9.95;87.86
23953;BME280;12163;49.316;6.092;2023-02-19T03:56:06;100023.16;;;9.98;87.73
23953;BME280;12163;49.316;6.092;2023-02-19T03:58:43;100035.59;;;9.99;87.56
23953;BME280;12163;49.316;6.092;2023-02-19T04:01:18;100039.31;;;9.98;87.77
23953;BME280;12163;49.316;6.092;2023-02-19T04:04:46;100037.72;;;9.97;87.36
23953;BME280;12163;49.316;6.092;2023-02-19T04:06:49;100043.66;;;9.99;87.79
23953;BME280;12163;49.316;6.092;2023-02-19T04:09:20;100047.97;;;10.00;87.27
23953;BME280;12163;49.316;6.092;2023-02-19T04:11:49;100053.63;;;9.98;87.23
23953;BME280;12163;49.316;6.092;2023-02-19T04:14:26;100059.88;;;10.04;86.83
23953;BME280;12163;49.316;6.092;2023-02-19T04:17:00;100064.97;;;10.05;86.36
23953;BME280;12163;49.316;6.092;2023-02-19T04:19:31;100059.84;;;9.99;86.79
23953;BME280;12163;49.316;6.092;2023-02-19T04:21:59;100059.34;;;10.02;86.62
23953;BME280;12163;49.316;6.092;2023-02-19T04:24:31;100070.91;;;10.02;86.71
23953;BME280;12163;49.316;6.092;2023-02-19T04:27:00;100061.50;;;10.05;85.96
23953;BME280;12163;49.316;6.092;2023-02-19T04:29:27;100067.97;;;10.09;85.77
23953;BME280;12163;49.316;6.092;2023-02-19T04:31:53;100065.53;;;10.12;85.22
23953;BME280;12163;49.316;6.092;2023-02-19T04:34:20;100064.47;;;10.13;85.04
23953;BME280;12163;49.316;6.092;2023-02-19T04:36:47;100056.09;;;10.10;85.37
23953;BME280;12163;49.316;6.092;2023-02-19T04:39:13;100050.97;;;10.08;85.62
23953;BME280;12163;49.316;6.092;2023-02-19T04:41:40;100048.53;;;10.07;85.07
23953;BME280;12163;49.316;6.092;2023-02-19T04:44:06;100055.03;;;10.06;85.48
23953;BME280;12163;49.316;6.092;2023-02-19T04:46:33;100066.88;;;10.10;85.26
23953;BME280;12163;49.316;6.092;2023-02-19T04:49:00;100069.56;;;10.10;84.95
23953;BME280;12163;49.316;6.092;2023-02-19T04:51:26;100062.56;;;10.09;84.90
23953;BME280;12163;49.316;6.092;2023-02-19T04:53:53;100074.97;;;10.10;84.64
23953;BME280;12163;49.316;6.092;2023-02-19T04:56:21;100115.41;;;10.10;84.67
23953;BME280;12163;49.316;6.092;2023-02-19T04:58:48;100091.16;;;10.10;84.66
23953;BME280;12163;49.316;6.092;2023-02-19T05:01:15;100078.19;;;10.12;84.09
23953;BME280;12163;49.316;6.092;2023-02-19T05:03:43;100081.44;;;10.09;84.43
23953;BME280;12163;49.316;6.092;2023-02-19T05:06:11;100089.53;;;10.09;84.69
23953;BME280;12163;49.316;6.092;2023-02-19T05:08:38;100089.53;;;10.09;84.78
23953;BME280;12163;49.316;6.092;2023-02-19T05:11:08;100077.66;;;10.05;84.54
23953;BME280;12163;49.316;6.092;2023-02-19T05:13:36;100076.06;;;10.04;85.08
23953;BME280;12163;49.316;6.092;2023-02-19T05:16:06;100087.38;;;10.01;84.72
23953;BME280;12163;49.316;6.092;2023-02-19T05:18:33;100082.00;;;10.01;84.91
23953;BME280;12163;49.316;6.092;2023-02-19T05:21:02;100084.94;;;10.04;84.69
23953;BME280;12163;49.316;6.092;2023-02-19T05:23:29;100091.69;;;10.02;84.22
23953;BME280;12163;49.316;6.092;2023-02-19T05:25:56;100094.91;;;9.99;84.40
23953;BME280;12163;49.316;6.092;2023-02-19T05:28:23;100101.09;;;9.99;84.59
23953;BME280;12163;49.316;6.092;2023-02-19T05:30:56;100099.78;;;10.02;84.30
23953;BME280;12163;49.316;6.092;2023-02-19T05:33:24;100086.00;;;10.03;84.20
23953;BME280;12163;49.316;6.092;2023-02-19T05:35:53;100096.00;;;10.03;84.18
23953;BME280;12163;49.316;6.092;2023-02-19T05:38:20;100094.38;;;10.02;84.05
23953;BME280;12163;49.316;6.092;2023-02-19T05:40:46;100106.78;;;10.03;84.05
23953;BME280;12163;49.316;6.092;2023-02-19T05:43:13;100122.16;;;10.02;83.99
23953;BME280;12163;49.316;6.092;2023-02-19T05:45:40;100115.41;;;10.05;83.88
23953;BME280;12163;49.316;6.092;2023-02-19T05:48:07;100113.25;;;10.02;83.82
23953;BME280;12163;49.316;6.092;2023-02-19T05:50:35;100112.19;;;10.03;84.01
23953;BME280;12163;49.316;6.092;2023-02-19T05:53:05;100122.97;;;10.03;83.50
23953;BME280;12163;49.316;6.092;2023-02-19T05:55:35;100125.66;;;10.03;83.81
23953;BME280;12163;49.316;6.092;2023-02-19T05:58:01;100123.75;;;10.03;83.81
23953;BME280;12163;49.316;6.092;2023-02-19T06:00:29;100119.75;;;10.31;83.58
23953;BME280;12163;49.316;6.092;2023-02-19T06:02:56;100128.09;;;10.49;83.61
23953;BME280;12163;49.316;6.092;2023-02-19T06:05:22;100131.59;;;10.90;81.65
23953;BME280;12163;49.316;6.092;2023-02-19T06:07:49;100121.31;;;10.92;80.83
23953;BME280;12163;49.316;6.092;2023-02-19T06:10:16;100129.91;;;11.09;80.60
23953;BME280;12163;49.316;6.092;2023-02-19T06:12:42;100143.69;;;11.12;78.24
23953;BME280;12163;49.316;6.092;2023-02-19T06:15:09;100136.38;;;11.08;78.13
23953;BME280;12163;49.316;6.092;2023-02-19T06:17:36;100135.31;;;11.04;79.11
23953;BME280;12163;49.316;6.092;2023-02-19T06:20:02;100137.47;;;11.12;78.64
23953;BME280;12163;49.316;6.092;2023-02-19T06:22:29;100139.63;;;11.20;77.77
23953;BME280;12163;49.316;6.092;2023-02-19T06:24:55;100145.28;;;11.23;78.10
23953;BME280;12163;49.316;6.092;2023-02-19T06:27:22;100154.78;;;11.11;77.24
23953;BME280;12163;49.316;6.092;2023-02-19T06:29:49;100158.56;;;10.95;78.11
23953;BME280;12163;49.316;6.092;2023-02-19T06:32:15;100164.25;;;10.93;78.57
23953;BME280;12163;49.316;6.092;2023-02-19T06:34:42;100171.00;;;10.96;78.99
23953;BME280;12163;49.316;6.092;2023-02-19T06:37:09;100175.03;;;10.98;78.78
23953;BME280;12163;49.316;6.092;2023-02-19T06:39:35;100175.84;;;11.04;78.84
23953;BME280;12163;49.316;6.092;2023-02-19T06:42:02;100172.59;;;11.07;78.24
23953;BME280;12163;49.316;6.092;2023-02-19T06:44:29;100169.09;;;11.01;78.32
23953;BME280;12163;49.316;6.092;2023-02-19T06:46:55;100170.97;;;11.06;77.96
23953;BME280;12163;49.316;6.092;2023-02-19T06:49:22;100181.72;;;11.26;78.73
23953;BME280;12163;49.316;6.092;2023-02-19T06:51:49;100185.50;;;11.35;78.10
23953;BME280;12163;49.316;6.092;2023-02-19T06:54:15;100187.91;;;11.36;78.24
23953;BME280;12163;49.316;6.092;2023-02-19T06:56:42;100188.69;;;11.47;77.65
23953;BME280;12163;49.316;6.092;2023-02-19T06:59:14;100191.38;;;11.52;77.06
23953;BME280;12163;49.316;6.092;2023-02-19T07:01:44;100198.97;;;11.50;76.33
23953;BME280;12163;49.316;6.092;2023-02-19T07:04:11;100200.88;;;11.44;76.46
23953;BME280;12163;49.316;6.092;2023-02-19T07:06:38;100205.22;;;11.35;76.48
23953;BME280;12163;49.316;6.092;2023-02-19T07:09:06;100214.72;;;11.18;77.09
23953;BME280;12163;49.316;6.092;2023-02-19T07:11:34;100216.09;;;11.00;77.37
23953;BME280;12163;49.316;6.092;2023-02-19T07:14:03;100219.34;;;10.87;78.29
23953;BME280;12163;49.316;6.092;2023-02-19T07:16:30;100223.38;;;10.75;78.85
23953;BME280;12163;49.316;6.092;2023-02-19T07:18:58;100226.63;;;10.67;79.14
23953;BME280;12163;49.316;6.092;2023-02-19T07:21:26;100234.69;;;10.57;79.75
23953;BME280;12163;49.316;6.092;2023-02-19T07:23:54;100230.09;;;10.47;79.81
23953;BME280;12163;49.316;6.092;2023-02-19T07:26:21;100229.03;;;10.48;80.15
23953;BME280;12163;49.316;6.092;2023-02-19T07:28:49;100234.66;;;10.42;80.59
23953;BME280;12163;49.316;6.092;2023-02-19T07:31:18;100231.44;;;10.40;80.48
23953;BME280;12163;49.316;6.092;2023-02-19T07:33:45;100231.44;;;10.40;80.76
23953;BME280;12163;49.316;6.092;2023-02-19T07:36:14;100236.03;;;10.39;81.24
23953;BME280;12163;49.316;6.092;2023-02-19T07:38:42;100229.03;;;10.38;81.34
23953;BME280;12163;49.316;6.092;2023-02-19T07:41:09;100229.81;;;10.39;81.24
23953;BME280;12163;49.316;6.092;2023-02-19T07:43:38;100239.56;;;10.45;81.80
23953;BME280;12163;49.316;6.092;2023-02-19T07:46:06;100247.66;;;10.45;81.37
23953;BME280;12163;49.316;6.092;2023-02-19T07:48:37;100248.75;;;10.44;81.35
23953;BME280;12163;49.316;6.092;2023-02-19T07:51:06;100248.19;;;10.47;81.66
23953;BME280;12163;49.316;6.092;2023-02-19T07:53:33;100256.59;;;10.55;81.45
23953;BME280;12163;49.316;6.092;2023-02-19T07:56:04;100261.16;;;10.55;81.09
23953;BME280;12163;49.316;6.092;2023-02-19T07:58:32;100270.88;;;10.56;81.10
23953;BME280;12163;49.316;6.092;2023-02-19T08:03:39;100267.88;;;10.52;81.36
23953;BME280;12163;49.316;6.092;2023-02-19T08:06:06;100270.59;;;10.52;81.61
23953;BME280;12163;49.316;6.092;2023-02-19T08:08:33;100264.94;;;10.59;81.05
23953;BME280;12163;49.316;6.092;2023-02-19T08:11:01;100267.09;;;10.62;81.34
23953;BME280;12163;49.316;6.092;2023-02-19T08:13:51;100267.09;;;10.62;81.15
23953;BME280;12163;49.316;6.092;2023-02-19T08:16:18;100273.31;;;10.62;81.10
23953;BME280;12163;49.316;6.092;2023-02-19T08:18:55;100274.09;;;10.63;80.86
23953;BME280;12163;49.316;6.092;2023-02-19T08:21:21;100269.53;;;10.68;81.10
23953;BME280;12163;49.316;6.092;2023-02-19T08:23:48;100260.66;;;10.73;81.28
23953;BME280;12163;49.316;6.092;2023-02-19T08:26:17;100270.91;;;10.76;81.04
23953;BME280;12163;49.316;6.092;2023-02-19T08:28:44;100266.56;;;10.80;80.73
23953;BME280;12163;49.316;6.092;2023-02-19T08:31:11;100266.88;;;10.78;80.62
23953;BME280;12163;49.316;6.092;2023-02-19T08:33:39;100264.16;;;10.78;80.22
23953;BME280;12163;49.316;6.092;2023-02-19T08:36:07;100270.34;;;10.79;80.54
23953;BME280;12163;49.316;6.092;2023-02-19T08:38:35;100270.63;;;10.82;79.90
23953;BME280;12163;49.316;6.092;2023-02-19T08:41:08;100268.47;;;10.84;80.59
23953;BME280;12163;49.316;6.092;2023-02-19T08:43:35;100272.00;;;10.90;80.24
23953;BME280;12163;49.316;6.092;2023-02-19T08:46:02;100274.16;;;10.93;79.98
23953;BME280;12163;49.316;6.092;2023-02-19T08:48:29;100277.41;;;10.95;79.80
23953;BME280;12163;49.316;6.092;2023-02-19T08:50:58;100284.41;;;10.96;79.86
23953;BME280;12163;49.316;6.092;2023-02-19T08:53:25;100279.00;;;10.96;79.42
23953;BME280;12163;49.316;6.092;2023-02-19T08:55:53;100272.00;;;10.95;79.24
23953;BME280;12163;49.316;6.092;2023-02-19T08:58:20;100278.47;;;10.99;79.23
23953;BME280;12163;49.316;6.092;2023-02-19T09:00:46;100280.91;;;11.00;79.73
23953;BME280;12163;49.316;6.092;2023-02-19T09:03:13;100284.94;;;11.03;79.27
23953;BME280;12163;49.316;6.092;2023-02-19T09:05:40;100286.84;;;11.07;79.04
23953;BME280;12163;49.316;6.092;2023-02-19T09:08:08;100293.34;;;11.06;78.94
23953;BME280;12163;49.316;6.092;2023-02-19T09:10:34;100291.19;;;11.03;79.08
23953;BME280;12163;49.316;6.092;2023-02-19T09:13:01;100295.50;;;11.04;79.14
23953;BME280;12163;49.316;6.092;2023-02-19T09:15:28;100299.53;;;11.07;79.07
23953;BME280;12163;49.316;6.092;2023-02-19T09:17:55;100312.25;;;11.06;78.15
23953;BME280;12163;49.316;6.092;2023-02-19T09:20:22;100318.97;;;11.09;78.43
23953;BME280;12163;49.316;6.092;2023-02-19T09:22:48;100322.50;;;11.09;78.68
23953;BME280;12163;49.316;6.092;2023-02-19T09:25:15;100330.06;;;11.07;78.85
23953;BME280;12163;49.316;6.092;2023-02-19T09:27:42;100326.00;;;11.10;79.05
23953;BME280;12163;49.316;6.092;2023-02-19T09:30:09;100326.81;;;11.15;77.55
23953;BME280;12163;49.316;6.092;2023-02-19T09:32:35;100345.19;;;11.18;77.37
23953;BME280;12163;49.316;6.092;2023-02-19T09:35:02;100342.75;;;11.17;77.36
23953;BME280;12163;49.316;6.092;2023-02-19T09:37:29;100347.88;;;11.18;78.19
23953;BME280;12163;49.316;6.092;2023-02-19T09:39:57;100355.72;;;11.20;77.62
23953;BME280;12163;49.316;6.092;2023-02-19T09:42:26;100348.72;;;11.19;77.33
23953;BME280;12163;49.316;6.092;2023-02-19T09:44:57;100365.19;;;11.17;77.90
23953;BME280;12163;49.316;6.092;2023-02-19T09:47:27;100354.66;;;11.21;78.53
23953;BME280;12163;49.316;6.092;2023-02-19T09:50:16;100356.53;;;11.15;77.66
23953;BME280;12163;49.316;6.092;2023-02-19T09:52:53;100363.84;;;11.15;78.24
23953;BME280;12163;49.316;6.092;2023-02-19T09:55:35;100368.16;;;11.11;77.64
23953;BME280;12163;49.316;6.092;2023-02-19T09:58:32;100363.00;;;11.14;77.96
23953;BME280;12163;49.316;6.092;2023-02-19T10:01:03;100367.09;;;11.12;78.30
23953;BME280;12163;49.316;6.092;2023-02-19T10:03:38;100372.19;;;11.08;77.57
23953;BME280;12163;49.316;6.092;2023-02-19T10:06:12;100384.09;;;11.07;78.58
23953;BME280;12163;49.316;6.092;2023-02-19T10:08:41;100377.84;;;11.07;78.37
23953;BME280;12163;49.316;6.092;2023-02-19T10:11:10;100377.59;;;11.03;78.46
23953;BME280;12163;49.316;6.092;2023-02-19T10:14:05;100377.84;;;10.97;78.31
23953;BME280;12163;49.316;6.092;2023-02-19T10:16:38;100382.19;;;11.03;78.70
23953;BME280;12163;49.316;6.092;2023-02-19T10:19:10;100381.66;;;11.11;78.07
23953;BME280;12163;49.316;6.092;2023-02-19T10:21:38;100375.19;;;11.17;77.86
23953;BME280;12163;49.316;6.092;2023-02-19T10:24:06;100375.44;;;11.20;78.03
23953;BME280;12163;49.316;6.092;2023-02-19T10:26:33;100376.25;;;11.26;77.47
23953;BME280;12163;49.316;6.092;2023-02-19T10:29:02;100390.88;;;11.35;77.13
23953;BME280;12163;49.316;6.092;2023-02-19T10:31:31;100388.16;;;11.40;76.50
23953;BME280;12163;49.316;6.092;2023-02-19T10:33:59;100387.91;;;11.46;76.67
23953;BME280;12163;49.316;6.092;2023-02-19T10:36:40;100378.97;;;11.51;75.84
23953;BME280;12163;49.316;6.092;2023-02-19T10:41:50;100367.91;;;11.57;75.47
23953;BME280;12163;49.316;6.092;2023-02-19T10:44:20;100374.41;;;11.61;75.00
23953;BME280;12163;49.316;6.092;2023-02-19T10:46:50;100376.56;;;11.69;75.49
23953;BME280;12163;49.316;6.092;2023-02-19T10:49:35;100376.81;;;11.68;73.99
23953;BME280;12163;49.316;6.092;2023-02-19T10:54:51;100377.91;;;11.62;73.93
23953;BME280;12163;49.316;6.092;2023-02-19T10:57:24;100374.66;;;11.65;73.92
23953;BME280;12163;49.316;6.092;2023-02-19T11:00:00;100383.88;;;11.64;72.80
23953;BME280;12163;49.316;6.092;2023-02-19T11:02:29;100387.09;;;11.66;73.56
23953;BME280;12163;49.316;6.092;2023-02-19T11:07:35;100375.22;;;11.67;73.06
23953;BME280;12163;49.316;6.092;2023-02-19T11:10:04;100374.41;;;11.71;73.10
23953;BME280;12163;49.316;6.092;2023-02-19T11:12:33;100389.78;;;11.71;72.11
23953;BME280;12163;49.316;6.092;2023-02-19T11:15:33;100390.34;;;11.68;72.29
23953;BME280;12163;49.316;6.092;2023-02-19T11:20:51;100388.44;;;11.63;71.48
23953;BME280;12163;49.316;6.092;2023-02-19T11:23:33;100395.22;;;11.71;71.12
23953;BME280;12163;49.316;6.092;2023-02-19T11:26:06;100404.41;;;11.79;71.40
23953;BME280;12163;49.316;6.092;2023-02-19T11:28:42;100415.75;;;11.86;71.04
23953;BME280;12163;49.316;6.092;2023-02-19T11:34:01;100390.84;;;11.99;71.13
23953;BME280;12163;49.316;6.092;2023-02-19T11:38:58;100405.97;;;12.10;69.87
23953;BME280;12163;49.316;6.092;2023-02-19T11:50:24;100401.66;;;11.94;68.94
23953;BME280;12163;49.316;6.092;2023-02-19T12:00:49;100400.81;;;12.14;68.90
23953;BME280;12163;49.316;6.092;2023-02-19T12:03:44;100390.25;;;12.12;68.47
23953;BME280;12163;49.316;6.092;2023-02-19T12:17:11;100391.25;;;12.41;66.67
23953;BME280;12163;49.316;6.092;2023-02-19T12:22:18;100405.34;;;12.43;66.49
23953;BME280;12163;49.316;6.092;2023-02-19T12:24:59;100422.38;;;12.44;66.95
23953;BME280;12163;49.316;6.092;2023-02-19T12:44:45;100443.56;;;12.17;65.67
23953;BME280;12163;49.316;6.092;2023-02-19T12:47:18;100443.84;;;12.10;65.54
23953;BME280;12163;49.316;6.092;2023-02-19T12:50:12;100444.66;;;12.06;66.34
23953;BME280;12163;49.316;6.092;2023-02-19T12:52:43;100434.94;;;12.10;66.89
23953;BME280;12163;49.316;6.092;2023-02-19T12:55:26;100433.28;;;12.14;66.75
23953;BME280;12163;49.316;6.092;2023-02-19T12:57:55;100436.25;;;12.22;66.32
23953;BME280;12163;49.316;6.092;2023-02-19T13:00:40;100422.16;;;12.20;66.92
23953;BME280;12163;49.316;6.092;2023-02-19T13:03:34;100417.84;;;12.24;67.35
23953;BME280;12163;49.316;6.092;2023-02-19T13:06:05;100413.22;;;12.25;66.61
23953;BME280;12163;49.316;6.092;2023-02-19T13:08:45;100416.22;;;12.28;67.63
23953;BME280;12163;49.316;6.092;2023-02-19T13:14:35;100393.50;;;12.19;67.67
23953;BME280;12163;49.316;6.092;2023-02-19T13:19:55;100391.03;;;12.28;67.75
23953;BME280;12163;49.316;6.092;2023-02-19T13:31:34;100394.53;;;12.33;66.64
23953;BME280;12163;49.316;6.092;2023-02-19T13:37:10;100385.88;;;12.31;66.01
23953;BME280;12163;49.316;6.092;2023-02-19T13:39:45;100385.31;;;12.34;66.26
23953;BME280;12163;49.316;6.092;2023-02-19T13:44:49;100371.53;;;12.31;64.77
23953;BME280;12163;49.316;6.092;2023-02-19T13:47:48;100381.03;;;12.28;64.95
23953;BME280;12163;49.316;6.092;2023-02-19T13:50:26;100370.50;;;12.22;64.43
23953;BME280;12163;49.316;6.092;2023-02-19T13:52:55;100381.03;;;12.18;65.71
23953;BME280;12163;49.316;6.092;2023-02-19T13:55:44;100384.31;;;12.15;64.77
23953;BME280;12163;49.316;6.092;2023-02-19T14:01:06;100378.34;;;12.18;65.88
23953;BME280;12163;49.316;6.092;2023-02-19T14:06:13;100382.41;;;12.16;64.92
23953;BME280;12163;49.316;6.092;2023-02-19T14:08:53;100378.63;;;12.17;65.33
23953;BME280;12163;49.316;6.092;2023-02-19T14:16:59;100365.28;;;12.35;64.26
23953;BME280;12163;49.316;6.092;2023-02-19T14:19:50;100384.22;;;12.40;63.18
23953;BME280;12163;49.316;6.092;2023-02-19T14:33:27;100398.31;;;12.32;63.29
23953;BME280;12163;49.316;6.092;2023-02-19T14:38:57;100409.66;;;12.39;63.85
23953;BME280;12163;49.316;6.092;2023-02-19T14:41:26;100399.94;;;12.43;63.62
23953;BME280;12163;49.316;6.092;2023-02-19T14:43:56;100411.03;;;12.42;63.52
23953;BME280;12163;49.316;6.092;2023-02-19T14:46:31;100404.25;;;12.39;64.08
23953;BME280;12163;49.316;6.092;2023-02-19T14:49:13;100410.78;;;12.33;64.47
23953;BME280;12163;49.316;6.092;2023-02-19T14:51:42;100407.03;;;12.24;64.50
23953;BME280;12163;49.316;6.092;2023-02-19T14:54:20;100411.63;;;12.24;64.41
23953;BME280;12163;49.316;6.092;2023-02-19T14:56:49;100411.34;;;12.20;64.95
23953;BME280;12163;49.316;6.092;2023-02-19T14:59:24;100399.19;;;12.18;65.01
23953;BME280;12163;49.316;6.092;2023-02-19T15:01:55;100399.47;;;12.11;64.77
23953;BME280;12163;49.316;6.092;2023-02-19T15:04:25;100401.38;;;12.11;64.79
23953;BME280;12163;49.316;6.092;2023-02-19T15:06:52;100403.53;;;12.14;65.57
23953;BME280;12163;49.316;6.092;2023-02-19T15:09:28;100411.66;;;12.14;65.04
23953;BME280;12163;49.316;6.092;2023-02-19T15:11:56;100414.91;;;12.11;64.27
23953;BME280;12163;49.316;6.092;2023-02-19T15:14:24;100416.50;;;12.07;65.17
23953;BME280;12163;49.316;6.092;2023-02-19T15:16:58;100422.75;;;12.07;64.70
23953;BME280;12163;49.316;6.092;2023-02-19T15:19:28;100435.75;;;12.05;65.38
23953;BME280;12163;49.316;6.092;2023-02-19T15:21:58;100442.78;;;12.06;65.31
23953;BME280;12163;49.316;6.092;2023-02-19T15:24:25;100440.31;;;12.05;65.46
23953;BME280;12163;49.316;6.092;2023-02-19T15:26:54;100449.53;;;12.04;65.03
23953;BME280;12163;49.316;6.092;2023-02-19T15:29:23;100439.00;;;12.02;65.62
23953;BME280;12163;49.316;6.092;2023-02-19T15:31:58;100443.31;;;12.03;65.81
23953;BME280;12163;49.316;6.092;2023-02-19T15:34:28;100451.69;;;12.02;65.75
23953;BME280;12163;49.316;6.092;2023-02-19T15:37:06;100452.25;;;11.99;65.59